sensor_id;sensor_type;location;lat;lon;timestamp;pressure;altitude;pressure_sealevel;temperature;humidity
36260;BME280;22296;50.824;5.644;2022-12-18T00:01:41;101793.59;;;10.72;54.68
36260;BME280;22296;50.824;5.644;2022-12-18T00:04:11;101790.81;;;10.67;54.62
36260;BME280;22296;50.824;5.644;2022-12-18T00:06:41;101788.31;;;10.66;54.58
36260;BME280;22296;50.824;5.644;2022-12-18T00:09:09;101791.34;;;10.64;54.65
36260;BME280;22296;50.824;5.644;2022-12-18T00:11:36;101794.34;;;10.63;54.59
36260;BME280;22296;50.824;5.644;2022-12-18T00:14:03;101799.03;;;10.62;54.45
36260;BME280;22296;50.824;5.644;2022-12-18T00:16:30;101798.47;;;10.60;54.59
36260;BME280;22296;50.824;5.644;2022-12-18T00:18:59;101808.13;;;10.58;54.64
36260;BME280;22296;50.824;5.644;2022-12-18T00:21:27;101807.81;;;10.54;54.78
36260;BME280;22296;50.824;5.644;2022-12-18T00:23:54;101800.94;;;10.57;54.61
36260;BME280;22296;50.824;5.644;2022-12-18T00:26:24;101803.13;;;10.55;54.79
36260;BME280;22296;50.824;5.644;2022-12-18T00:28:59;101800.06;;;10.46;54.98
36260;BME280;22296;50.824;5.644;2022-12-18T00:31:29;101793.41;;;10.42;54.91
36260;BME280;22296;50.824;5.644;2022-12-18T00:33:56;101799.75;;;10.43;54.91
36260;BME280;22296;50.824;5.644;2022-12-18T00:36:25;101804.69;;;10.36;54.94
36260;BME280;22296;50.824;5.644;2022-12-18T00:38:55;101796.13;;;10.32;55.27
36260;BME280;22296;50.824;5.644;2022-12-18T00:41:22;101802.72;;;10.31;55.12
36260;BME280;22296;50.824;5.644;2022-12-18T00:44:09;101807.13;;;10.27;55.30
36260;BME280;22296;50.824;5.644;2022-12-18T00:46:36;101802.94;;;10.24;55.25
36260;BME280;22296;50.824;5.644;2022-12-18T00:49:03;101798.78;;;10.22;55.28
36260;BME280;22296;50.824;5.644;2022-12-18T00:51:30;101793.81;;;10.19;55.37
36260;BME280;22296;50.824;5.644;2022-12-18T00:53:57;101799.31;;;10.19;55.60
36260;BME280;22296;50.824;5.644;2022-12-18T00:56:24;101788.25;;;10.14;55.52
36260;BME280;22296;50.824;5.644;2022-12-18T00:58:51;101782.75;;;10.14;55.48
36260;BME280;22296;50.824;5.644;2022-12-18T01:01:18;101776.16;;;10.15;55.31
36260;BME280;22296;50.824;5.644;2022-12-18T01:03:45;101780.00;;;10.14;55.37
36260;BME280;22296;50.824;5.644;2022-12-18T01:06:15;101775.50;;;10.08;55.38
36260;BME280;22296;50.824;5.644;2022-12-18T01:08:42;101773.03;;;10.06;55.54
36260;BME280;22296;50.824;5.644;2022-12-18T01:11:12;101764.22;;;10.09;55.39
36260;BME280;22296;50.824;5.644;2022-12-18T01:13:40;101765.53;;;10.02;55.71
36260;BME280;22296;50.824;5.644;2022-12-18T01:16:07;101759.44;;;9.95;55.71
36260;BME280;22296;50.824;5.644;2022-12-18T01:18:35;101758.28;;;9.91;56.01
36260;BME280;22296;50.824;5.644;2022-12-18T01:21:05;101766.00;;;9.89;56.00
36260;BME280;22296;50.824;5.644;2022-12-18T01:23:32;101762.97;;;9.90;55.69
36260;BME280;22296;50.824;5.644;2022-12-18T01:26:03;101761.03;;;9.91;55.85
36260;BME280;22296;50.824;5.644;2022-12-18T01:28:30;101761.31;;;9.89;55.71
36260;BME280;22296;50.824;5.644;2022-12-18T01:30:57;101764.59;;;9.86;56.00
36260;BME280;22296;50.824;5.644;2022-12-18T01:33:24;101764.84;;;9.85;55.71
36260;BME280;22296;50.824;5.644;2022-12-18T01:35:51;101770.97;;;9.87;55.79
36260;BME280;22296;50.824;5.644;2022-12-18T01:38:19;101774.78;;;9.86;55.92
36260;BME280;22296;50.824;5.644;2022-12-18T01:40:46;101770.34;;;9.80;56.06
36260;BME280;22296;50.824;5.644;2022-12-18T01:43:13;101766.75;;;9.79;55.92
36260;BME280;22296;50.824;5.644;2022-12-18T01:45:40;101765.88;;;9.73;56.22
36260;BME280;22296;50.824;5.644;2022-12-18T01:48:07;101758.13;;;9.70;56.16
36260;BME280;22296;50.824;5.644;2022-12-18T01:50:36;101749.31;;;9.68;56.09
36260;BME280;22296;50.824;5.644;2022-12-18T01:53:11;101753.97;;;9.68;56.15
36260;BME280;22296;50.824;5.644;2022-12-18T01:55:46;101743.81;;;9.68;56.21
36260;BME280;22296;50.824;5.644;2022-12-18T01:58:13;101747.91;;;9.66;55.93
36260;BME280;22296;50.824;5.644;2022-12-18T02:00:40;101761.38;;;9.62;56.14
36260;BME280;22296;50.824;5.644;2022-12-18T02:03:08;101758.59;;;9.57;56.29
36260;BME280;22296;50.824;5.644;2022-12-18T02:10:33;101751.41;;;9.56;56.18
36260;BME280;22296;50.824;5.644;2022-12-18T02:13:36;101745.91;;;9.56;56.28
36260;BME280;22296;50.824;5.644;2022-12-18T02:16:06;101738.16;;;9.53;56.24
36260;BME280;22296;50.824;5.644;2022-12-18T02:18:40;101751.41;;;9.56;56.38
36260;BME280;22296;50.824;5.644;2022-12-18T02:21:12;101755.78;;;9.52;56.37
36260;BME280;22296;50.824;5.644;2022-12-18T02:26:19;101749.13;;;9.48;56.41
36260;BME280;22296;50.824;5.644;2022-12-18T02:28:52;101745.31;;;9.49;56.21
36260;BME280;22296;50.824;5.644;2022-12-18T02:31:24;101736.97;;;9.44;56.61
36260;BME280;22296;50.824;5.644;2022-12-18T02:33:52;101746.34;;;9.43;56.46
36260;BME280;22296;50.824;5.644;2022-12-18T02:36:20;101743.91;;;9.47;56.19
36260;BME280;22296;50.824;5.644;2022-12-18T02:38:48;101741.41;;;9.45;56.60
36260;BME280;22296;50.824;5.644;2022-12-18T02:41:15;101736.16;;;9.44;56.36
36260;BME280;22296;50.824;5.644;2022-12-18T02:43:47;101738.31;;;9.42;56.34
36260;BME280;22296;50.824;5.644;2022-12-18T02:46:23;101735.31;;;9.43;56.19
36260;BME280;22296;50.824;5.644;2022-12-18T02:48:53;101735.84;;;9.40;56.31
36260;BME280;22296;50.824;5.644;2022-12-18T02:54:21;101725.91;;;9.39;56.46
36260;BME280;22296;50.824;5.644;2022-12-18T02:56:51;101711.59;;;9.37;56.33
36260;BME280;22296;50.824;5.644;2022-12-18T02:59:26;101707.16;;;9.36;56.44
36260;BME280;22296;50.824;5.644;2022-12-18T03:02:21;101705.53;;;9.35;56.26
36260;BME280;22296;50.824;5.644;2022-12-18T03:07:57;101699.19;;;9.35;56.39
36260;BME280;22296;50.824;5.644;2022-12-18T03:10:28;101689.00;;;9.35;56.28
36260;BME280;22296;50.824;5.644;2022-12-18T03:13:06;101685.75;;;9.38;56.31
36260;BME280;22296;50.824;5.644;2022-12-18T03:15:40;101683.50;;;9.35;56.22
36260;BME280;22296;50.824;5.644;2022-12-18T03:18:23;101675.25;;;9.35;56.34
36260;BME280;22296;50.824;5.644;2022-12-18T03:20:51;101669.75;;;9.35;56.29
36260;BME280;22296;50.824;5.644;2022-12-18T03:23:21;101673.59;;;9.39;56.39
36260;BME280;22296;50.824;5.644;2022-12-18T03:25:53;101681.88;;;9.39;56.17
36260;BME280;22296;50.824;5.644;2022-12-18T03:28:25;101678.28;;;9.39;56.28
36260;BME280;22296;50.824;5.644;2022-12-18T03:30:58;101672.50;;;9.35;56.31
36260;BME280;22296;50.824;5.644;2022-12-18T03:33:30;101681.84;;;9.34;56.38
36260;BME280;22296;50.824;5.644;2022-12-18T03:35:58;101673.00;;;9.32;56.41
36260;BME280;22296;50.824;5.644;2022-12-18T03:38:26;101674.13;;;9.36;56.50
36260;BME280;22296;50.824;5.644;2022-12-18T03:43:25;101677.47;;;9.38;56.29
36260;BME280;22296;50.824;5.644;2022-12-18T03:45:56;101689.81;;;9.36;56.59
36260;BME280;22296;50.824;5.644;2022-12-18T03:50:56;101684.31;;;9.36;56.35
36260;BME280;22296;50.824;5.644;2022-12-18T03:56:09;101672.50;;;9.35;56.32
36260;BME280;22296;50.824;5.644;2022-12-18T03:58:40;101678.00;;;9.35;56.16
36260;BME280;22296;50.824;5.644;2022-12-18T04:01:20;101674.66;;;9.33;56.47
36260;BME280;22296;50.824;5.644;2022-12-18T04:03:49;101679.31;;;9.33;56.11
36260;BME280;22296;50.824;5.644;2022-12-18T04:06:18;101684.03;;;9.32;56.11
36260;BME280;22296;50.824;5.644;2022-12-18T04:08:45;101671.38;;;9.36;56.22
36260;BME280;22296;50.824;5.644;2022-12-18T04:11:16;101670.50;;;9.31;56.44
36260;BME280;22296;50.824;5.644;2022-12-18T04:13:45;101658.13;;;9.33;56.28
36260;BME280;22296;50.824;5.644;2022-12-18T04:16:20;101658.13;;;9.33;56.42
36260;BME280;22296;50.824;5.644;2022-12-18T04:18:50;101663.66;;;9.33;56.24
36260;BME280;22296;50.824;5.644;2022-12-18T04:21:19;101652.63;;;9.33;56.11
36260;BME280;22296;50.824;5.644;2022-12-18T04:23:47;101651.81;;;9.33;56.16
36260;BME280;22296;50.824;5.644;2022-12-18T04:26:16;101653.16;;;9.30;56.24
36260;BME280;22296;50.824;5.644;2022-12-18T04:28:53;101664.47;;;9.34;56.24
36260;BME280;22296;50.824;5.644;2022-12-18T04:31:20;101682.66;;;9.35;56.16
36260;BME280;22296;50.824;5.644;2022-12-18T04:33:47;101679.31;;;9.33;56.22
36260;BME280;22296;50.824;5.644;2022-12-18T04:36:14;101677.94;;;9.30;56.25
36260;BME280;22296;50.824;5.644;2022-12-18T04:38:42;101687.31;;;9.29;55.97
36260;BME280;22296;50.824;5.644;2022-12-18T04:41:12;101680.16;;;9.33;56.17
36260;BME280;22296;50.824;5.644;2022-12-18T04:43:40;101677.13;;;9.30;56.13
36260;BME280;22296;50.824;5.644;2022-12-18T04:46:08;101679.03;;;9.29;56.22
36260;BME280;22296;50.824;5.644;2022-12-18T04:48:35;101681.22;;;9.27;56.26
36260;BME280;22296;50.824;5.644;2022-12-18T04:51:03;101693.38;;;9.31;56.07
36260;BME280;22296;50.824;5.644;2022-12-18T04:53:30;101690.06;;;9.29;56.08
36260;BME280;22296;50.824;5.644;2022-12-18T04:58:30;101687.31;;;9.29;56.08
36260;BME280;22296;50.824;5.644;2022-12-18T05:00:56;101675.19;;;9.30;56.19
36260;BME280;22296;50.824;5.644;2022-12-18T05:03:26;101668.59;;;9.31;55.91
36260;BME280;22296;50.824;5.644;2022-12-18T05:05:53;101664.16;;;9.30;56.11
36260;BME280;22296;50.824;5.644;2022-12-18T05:08:19;101671.00;;;9.23;56.29
36260;BME280;22296;50.824;5.644;2022-12-18T05:10:46;101659.19;;;9.27;56.04
36260;BME280;22296;50.824;5.644;2022-12-18T05:13:13;101657.56;;;9.26;55.98
36260;BME280;22296;50.824;5.644;2022-12-18T05:15:41;101659.44;;;9.21;56.09
36260;BME280;22296;50.824;5.644;2022-12-18T05:18:08;101669.59;;;9.20;56.19
36260;BME280;22296;50.824;5.644;2022-12-18T05:20:38;101683.41;;;9.25;56.28
36260;BME280;22296;50.824;5.644;2022-12-18T05:23:04;101683.16;;;9.27;56.09
36260;BME280;22296;50.824;5.644;2022-12-18T05:25:31;101681.72;;;9.24;56.22
36260;BME280;22296;50.824;5.644;2022-12-18T05:27:58;101685.06;;;9.26;56.17
36260;BME280;22296;50.824;5.644;2022-12-18T05:30:26;101687.31;;;9.29;55.99
36260;BME280;22296;50.824;5.644;2022-12-18T05:32:53;101683.97;;;9.27;55.65
36260;BME280;22296;50.824;5.644;2022-12-18T05:35:21;101691.09;;;9.23;56.03
36260;BME280;22296;50.824;5.644;2022-12-18T05:37:48;101694.88;;;9.17;56.15
36260;BME280;22296;50.824;5.644;2022-12-18T05:40:14;101698.53;;;9.23;55.89
36260;BME280;22296;50.824;5.644;2022-12-18T05:42:41;101694.63;;;9.18;55.96
36260;BME280;22296;50.824;5.644;2022-12-18T05:45:08;101698.78;;;9.21;56.09
36260;BME280;22296;50.824;5.644;2022-12-18T05:47:35;101690.78;;;9.20;56.08
36260;BME280;22296;50.824;5.644;2022-12-18T05:50:01;101693.81;;;9.18;56.04
36260;BME280;22296;50.824;5.644;2022-12-18T05:52:28;101674.78;;;9.16;55.99
36260;BME280;22296;50.824;5.644;2022-12-18T05:54:54;101676.47;;;9.18;56.33
36260;BME280;22296;50.824;5.644;2022-12-18T05:57:21;101688.81;;;9.15;56.35
36260;BME280;22296;50.824;5.644;2022-12-18T05:59:48;101688.00;;;9.14;56.36
36260;BME280;22296;50.824;5.644;2022-12-18T06:02:15;101675.88;;;9.15;56.04
36260;BME280;22296;50.824;5.644;2022-12-18T06:04:41;101673.44;;;9.19;56.01
36260;BME280;22296;50.824;5.644;2022-12-18T06:07:08;101682.72;;;9.13;56.18
36260;BME280;22296;50.824;5.644;2022-12-18T06:09:35;101686.31;;;9.13;56.15
36260;BME280;22296;50.824;5.644;2022-12-18T06:12:02;101681.66;;;9.14;56.07
36260;BME280;22296;50.824;5.644;2022-12-18T06:14:29;101681.09;;;9.12;56.10
36260;BME280;22296;50.824;5.644;2022-12-18T06:16:55;101668.97;;;9.13;56.10
36260;BME280;22296;50.824;5.644;2022-12-18T06:19:22;101683.78;;;9.07;56.38
36260;BME280;22296;50.824;5.644;2022-12-18T06:21:49;101675.84;;;9.10;55.91
36260;BME280;22296;50.824;5.644;2022-12-18T06:24:16;101682.13;;;9.06;56.29
36260;BME280;22296;50.824;5.644;2022-12-18T06:26:43;101676.88;;;9.04;56.28
36260;BME280;22296;50.824;5.644;2022-12-18T06:29:09;101673.34;;;9.09;56.27
36260;BME280;22296;50.824;5.644;2022-12-18T06:31:36;101679.97;;;9.13;55.96
36260;BME280;22296;50.824;5.644;2022-12-18T06:34:03;101681.66;;;9.14;56.01
36260;BME280;22296;50.824;5.644;2022-12-18T06:36:30;101683.22;;;9.05;56.09
36260;BME280;22296;50.824;5.644;2022-12-18T06:38:57;101684.59;;;9.07;56.29
36260;BME280;22296;50.824;5.644;2022-12-18T06:41:24;101682.38;;;9.04;56.16
36260;BME280;22296;50.824;5.644;2022-12-18T06:43:51;101685.09;;;8.99;56.21
36260;BME280;22296;50.824;5.644;2022-12-18T06:46:24;101682.59;;;8.98;56.37
36260;BME280;22296;50.824;5.644;2022-12-18T06:48:53;101690.25;;;8.96;56.52
36260;BME280;22296;50.824;5.644;2022-12-18T06:51:21;101678.69;;;8.94;56.29
36260;BME280;22296;50.824;5.644;2022-12-18T06:53:48;101679.25;;;8.96;55.99
36260;BME280;22296;50.824;5.644;2022-12-18T06:56:16;101684.75;;;8.96;56.07
36260;BME280;22296;50.824;5.644;2022-12-18T06:58:43;101690.78;;;8.93;56.35
36260;BME280;22296;50.824;5.644;2022-12-18T07:01:10;101687.47;;;8.91;56.26
36260;BME280;22296;50.824;5.644;2022-12-18T07:03:40;101691.94;;;8.97;56.48
36260;BME280;22296;50.824;5.644;2022-12-18T07:06:18;101676.25;;;8.97;55.90
36260;BME280;22296;50.824;5.644;2022-12-18T07:08:45;101677.09;;;8.98;56.06
36260;BME280;22296;50.824;5.644;2022-12-18T07:11:12;101678.75;;;8.99;55.78
36260;BME280;22296;50.824;5.644;2022-12-18T07:13:39;101663.91;;;9.00;56.01
36260;BME280;22296;50.824;5.644;2022-12-18T07:18:42;101639.19;;;9.05;55.77
36260;BME280;22296;50.824;5.644;2022-12-18T07:21:11;101637.63;;;9.14;55.49
36260;BME280;22296;50.824;5.644;2022-12-18T07:23:39;101626.09;;;9.17;55.50
36260;BME280;22296;50.824;5.644;2022-12-18T07:26:07;101627.25;;;9.21;55.49
36260;BME280;22296;50.824;5.644;2022-12-18T07:28:35;101622.84;;;9.25;55.40
36260;BME280;22296;50.824;5.644;2022-12-18T07:31:03;101614.06;;;9.28;55.01
36260;BME280;22296;50.824;5.644;2022-12-18T07:33:30;101614.63;;;9.30;55.04
36260;BME280;22296;50.824;5.644;2022-12-18T07:35:58;101610.28;;;9.39;54.94
36260;BME280;22296;50.824;5.644;2022-12-18T07:38:26;101613.03;;;9.39;55.03
36260;BME280;22296;50.824;5.644;2022-12-18T07:40:52;101599.91;;;9.46;54.69
36260;BME280;22296;50.824;5.644;2022-12-18T07:43:19;101599.06;;;9.46;54.87
36260;BME280;22296;50.824;5.644;2022-12-18T07:45:48;101602.66;;;9.51;54.65
36260;BME280;22296;50.824;5.644;2022-12-18T07:48:15;101605.97;;;9.53;54.42
36260;BME280;22296;50.824;5.644;2022-12-18T07:50:42;101602.16;;;9.54;54.48
36260;BME280;22296;50.824;5.644;2022-12-18T07:53:09;101598.03;;;9.57;54.45
36260;BME280;22296;50.824;5.644;2022-12-18T07:55:35;101603.84;;;9.60;54.41
36260;BME280;22296;50.824;5.644;2022-12-18T07:58:22;101592.28;;;9.58;54.55
36260;BME280;22296;50.824;5.644;2022-12-18T08:00:50;101587.31;;;9.60;54.52
36260;BME280;22296;50.824;5.644;2022-12-18T08:03:16;101590.63;;;9.62;54.36
36260;BME280;22296;50.824;5.644;2022-12-18T08:05:43;101588.16;;;9.61;54.32
36260;BME280;22296;50.824;5.644;2022-12-18T08:08:10;101581.28;;;9.63;54.46
36260;BME280;22296;50.824;5.644;2022-12-18T08:10:37;101579.34;;;9.64;54.34
36260;BME280;22296;50.824;5.644;2022-12-18T08:13:03;101574.72;;;9.69;54.20
36260;BME280;22296;50.824;5.644;2022-12-18T08:15:30;101579.69;;;9.72;54.12
36260;BME280;22296;50.824;5.644;2022-12-18T08:17:57;101582.91;;;9.64;54.28
36260;BME280;22296;50.824;5.644;2022-12-18T08:20:24;101592.28;;;9.63;54.37
36260;BME280;22296;50.824;5.644;2022-12-18T08:22:51;101594.53;;;9.71;54.20
36260;BME280;22296;50.824;5.644;2022-12-18T08:25:17;101595.06;;;9.68;54.20
36260;BME280;22296;50.824;5.644;2022-12-18T08:27:44;101590.13;;;9.70;54.26
36260;BME280;22296;50.824;5.644;2022-12-18T08:30:11;101591.22;;;9.69;54.16
36260;BME280;22296;50.824;5.644;2022-12-18T08:32:38;101590.41;;;9.69;54.09
36260;BME280;22296;50.824;5.644;2022-12-18T08:35:05;101587.09;;;9.72;54.19
36260;BME280;22296;50.824;5.644;2022-12-18T08:37:32;101594.53;;;9.66;54.09
36260;BME280;22296;50.824;5.644;2022-12-18T08:39:58;101598.38;;;9.70;54.02
36260;BME280;22296;50.824;5.644;2022-12-18T08:42:25;101599.50;;;9.74;54.09
36260;BME280;22296;50.824;5.644;2022-12-18T08:45:10;101586.81;;;9.68;54.29
36260;BME280;22296;50.824;5.644;2022-12-18T08:47:37;101586.81;;;9.73;53.87
36260;BME280;22296;50.824;5.644;2022-12-18T08:50:04;101586.28;;;9.77;53.98
36260;BME280;22296;50.824;5.644;2022-12-18T08:52:31;101565.91;;;9.72;54.21
36260;BME280;22296;50.824;5.644;2022-12-18T08:54:58;101560.41;;;9.78;54.05
36260;BME280;22296;50.824;5.644;2022-12-18T08:57:25;101554.06;;;9.77;54.01
36260;BME280;22296;50.824;5.644;2022-12-18T08:59:52;101559.06;;;9.80;53.99
36260;BME280;22296;50.824;5.644;2022-12-18T09:02:18;101558.22;;;9.80;54.07
36260;BME280;22296;50.824;5.644;2022-12-18T09:04:46;101548.88;;;9.81;54.04
36260;BME280;22296;50.824;5.644;2022-12-18T09:07:20;101568.44;;;9.84;53.87
36260;BME280;22296;50.824;5.644;2022-12-18T09:09:47;101576.97;;;9.88;53.70
36260;BME280;22296;50.824;5.644;2022-12-18T09:12:14;101573.13;;;9.89;53.81
36260;BME280;22296;50.824;5.644;2022-12-18T09:14:40;101565.94;;;9.83;53.88
36260;BME280;22296;50.824;5.644;2022-12-18T09:17:07;101564.88;;;9.89;53.89
36260;BME280;22296;50.824;5.644;2022-12-18T09:19:34;101560.75;;;9.91;53.66
36260;BME280;22296;50.824;5.644;2022-12-18T09:22:01;101563.78;;;9.90;53.71
36260;BME280;22296;50.824;5.644;2022-12-18T09:24:28;101559.38;;;9.89;53.97
36260;BME280;22296;50.824;5.644;2022-12-18T09:26:54;101558.53;;;9.93;53.85
36260;BME280;22296;50.824;5.644;2022-12-18T09:29:23;101553.88;;;9.94;53.56
36260;BME280;22296;50.824;5.644;2022-12-18T09:31:50;101562.13;;;9.94;53.83
36260;BME280;22296;50.824;5.644;2022-12-18T09:34:17;101553.88;;;9.94;53.74
36260;BME280;22296;50.824;5.644;2022-12-18T09:36:43;101551.13;;;9.94;53.71
36260;BME280;22296;50.824;5.644;2022-12-18T09:39:10;101543.44;;;9.96;53.71
36260;BME280;22296;50.824;5.644;2022-12-18T09:44:12;101543.16;;;10.07;53.27
36260;BME280;22296;50.824;5.644;2022-12-18T09:46:43;101538.28;;;10.14;53.28
36260;BME280;22296;50.824;5.644;2022-12-18T09:49:12;101542.69;;;10.15;53.31
36260;BME280;22296;50.824;5.644;2022-12-18T09:51:49;101544.63;;;10.20;53.25
36260;BME280;22296;50.824;5.644;2022-12-18T09:54:21;101545.72;;;10.19;53.25
36260;BME280;22296;50.824;5.644;2022-12-18T09:56:49;101532.22;;;10.22;53.23
36260;BME280;22296;50.824;5.644;2022-12-18T10:01:46;101536.34;;;10.25;53.14
36260;BME280;22296;50.824;5.644;2022-12-18T10:04:13;101537.47;;;10.24;53.29
36260;BME280;22296;50.824;5.644;2022-12-18T10:14:46;101547.69;;;10.34;52.94
36260;BME280;22296;50.824;5.644;2022-12-18T10:17:35;101532.81;;;10.40;53.03
36260;BME280;22296;50.824;5.644;2022-12-18T10:20:05;101518.19;;;10.39;52.93
36260;BME280;22296;50.824;5.644;2022-12-18T10:25:17;101514.09;;;10.47;52.99
36260;BME280;22296;50.824;5.644;2022-12-18T10:27:46;101530.91;;;10.50;52.81
36260;BME280;22296;50.824;5.644;2022-12-18T10:30:14;101528.72;;;10.52;52.44
36260;BME280;22296;50.824;5.644;2022-12-18T10:32:41;101527.63;;;10.58;52.63
36260;BME280;22296;50.824;5.644;2022-12-18T10:35:11;101520.69;;;10.51;52.90
36260;BME280;22296;50.824;5.644;2022-12-18T10:37:58;101517.69;;;10.52;52.76
36260;BME280;22296;50.824;5.644;2022-12-18T10:40:25;101506.09;;;10.55;52.89
36260;BME280;22296;50.824;5.644;2022-12-18T10:43:11;101506.09;;;10.55;52.80
36260;BME280;22296;50.824;5.644;2022-12-18T10:45:38;101494.53;;;10.58;52.66
36260;BME280;22296;50.824;5.644;2022-12-18T10:48:17;101495.59;;;10.62;52.78
36260;BME280;22296;50.824;5.644;2022-12-18T10:50:46;101491.47;;;10.60;52.82
36260;BME280;22296;50.824;5.644;2022-12-18T10:53:34;101480.72;;;10.63;52.69
36260;BME280;22296;50.824;5.644;2022-12-18T10:56:03;101480.16;;;10.66;52.74
36260;BME280;22296;50.824;5.644;2022-12-18T10:58:32;101483.47;;;10.68;52.64
36260;BME280;22296;50.824;5.644;2022-12-18T11:01:15;101492.03;;;10.67;52.85
36260;BME280;22296;50.824;5.644;2022-12-18T11:03:47;101496.19;;;10.69;52.67
36260;BME280;22296;50.824;5.644;2022-12-18T11:06:28;101487.34;;;10.67;52.82
36260;BME280;22296;50.824;5.644;2022-12-18T11:09:02;101476.84;;;10.74;52.62
36260;BME280;22296;50.824;5.644;2022-12-18T11:11:39;101471.91;;;10.66;52.67
36260;BME280;22296;50.824;5.644;2022-12-18T11:14:10;101463.91;;;10.70;52.69
36260;BME280;22296;50.824;5.644;2022-12-18T11:16:46;101466.94;;;10.68;52.85
36260;BME280;22296;50.824;5.644;2022-12-18T11:19:34;101454.50;;;10.66;52.91
36260;BME280;22296;50.824;5.644;2022-12-18T11:22:03;101448.16;;;10.70;52.72
36260;BME280;22296;50.824;5.644;2022-12-18T11:24:50;101444.31;;;10.71;52.74
36260;BME280;22296;50.824;5.644;2022-12-18T11:27:39;101441.53;;;10.76;52.61
36260;BME280;22296;50.824;5.644;2022-12-18T11:30:07;101441.00;;;10.74;52.72
36260;BME280;22296;50.824;5.644;2022-12-18T11:32:39;101437.69;;;10.77;52.77
36260;BME280;22296;50.824;5.644;2022-12-18T11:38:13;101431.63;;;10.75;52.70
36260;BME280;22296;50.824;5.644;2022-12-18T11:40:45;101422.50;;;10.75;52.90
36260;BME280;22296;50.824;5.644;2022-12-18T11:43:18;101419.47;;;10.76;52.71
36260;BME280;22296;50.824;5.644;2022-12-18T11:48:17;101419.22;;;10.73;52.72
36260;BME280;22296;50.824;5.644;2022-12-18T11:50:47;101412.59;;;10.79;52.65
36260;BME280;22296;50.824;5.644;2022-12-18T11:53:15;101416.16;;;10.84;52.48
36260;BME280;22296;50.824;5.644;2022-12-18T11:58:25;101409.00;;;10.78;52.46
36260;BME280;22296;50.824;5.644;2022-12-18T12:01:07;101401.25;;;10.85;52.23
36260;BME280;22296;50.824;5.644;2022-12-18T12:09:31;101385.03;;;11.43;51.61
36260;BME280;22296;50.824;5.644;2022-12-18T12:12:36;101376.03;;;11.81;50.66
36260;BME280;22296;50.824;5.644;2022-12-18T12:15:06;101381.41;;;12.02;50.12
36260;BME280;22296;50.824;5.644;2022-12-18T12:22:49;101378.91;;;12.39;49.52
36260;BME280;22296;50.824;5.644;2022-12-18T12:39:16;101352.00;;;12.73;49.18
36260;BME280;22296;50.824;5.644;2022-12-18T12:41:45;101344.53;;;12.74;49.24
36260;BME280;22296;50.824;5.644;2022-12-18T12:44:51;101356.06;;;12.81;49.01
36260;BME280;22296;50.824;5.644;2022-12-18T12:49:52;101358.56;;;12.82;48.88
36260;BME280;22296;50.824;5.644;2022-12-18T12:52:24;101346.91;;;12.85;48.89
36260;BME280;22296;50.824;5.644;2022-12-18T12:54:55;101345.72;;;12.91;48.79
36260;BME280;22296;50.824;5.644;2022-12-18T12:57:26;101339.56;;;12.94;48.59
36260;BME280;22296;50.824;5.644;2022-12-18T13:07:33;101307.34;;;13.08;48.37
36260;BME280;22296;50.824;5.644;2022-12-18T13:13:00;101304.59;;;13.03;48.73
36260;BME280;22296;50.824;5.644;2022-12-18T13:20:41;101297.31;;;13.12;48.49
36260;BME280;22296;50.824;5.644;2022-12-18T13:23:30;101298.81;;;13.24;48.44
36260;BME280;22296;50.824;5.644;2022-12-18T13:31:06;101295.97;;;13.29;48.46
36260;BME280;22296;50.824;5.644;2022-12-18T13:38:37;101295.09;;;13.52;47.92
36260;BME280;22296;50.824;5.644;2022-12-18T13:41:21;101299.00;;;13.51;48.12
36260;BME280;22296;50.824;5.644;2022-12-18T13:43:49;101299.00;;;13.51;48.01
36260;BME280;22296;50.824;5.644;2022-12-18T13:48:57;101294.44;;;13.60;47.92
36260;BME280;22296;50.824;5.644;2022-12-18T13:51:25;101285.88;;;13.56;48.03
36260;BME280;22296;50.824;5.644;2022-12-18T13:53:57;101281.69;;;13.59;48.06
36260;BME280;22296;50.824;5.644;2022-12-18T13:56:28;101287.91;;;13.69;47.88
36260;BME280;22296;50.824;5.644;2022-12-18T14:01:58;101298.59;;;13.76;47.78
36260;BME280;22296;50.824;5.644;2022-12-18T14:04:30;101297.03;;;13.70;48.08
36260;BME280;22296;50.824;5.644;2022-12-18T14:07:00;101299.72;;;13.75;48.00
36260;BME280;22296;50.824;5.644;2022-12-18T14:09:29;101296.34;;;13.78;47.91
36260;BME280;22296;50.824;5.644;2022-12-18T14:11:57;101289.69;;;13.79;47.73
36260;BME280;22296;50.824;5.644;2022-12-18T14:14:44;101288.63;;;13.75;48.07
36260;BME280;22296;50.824;5.644;2022-12-18T14:17:11;101296.94;;;13.75;48.08
36260;BME280;22296;50.824;5.644;2022-12-18T14:19:42;101300.56;;;13.76;48.08
36260;BME280;22296;50.824;5.644;2022-12-18T14:22:24;101306.31;;;13.79;47.88
36260;BME280;22296;50.824;5.644;2022-12-18T14:25:13;101302.63;;;13.84;47.97
36260;BME280;22296;50.824;5.644;2022-12-18T14:27:42;101306.75;;;13.86;47.94
36260;BME280;22296;50.824;5.644;2022-12-18T14:33:11;101309.84;;;13.85;47.88
36260;BME280;22296;50.824;5.644;2022-12-18T14:35:39;101310.06;;;13.88;48.00
36260;BME280;22296;50.824;5.644;2022-12-18T14:40:52;101301.44;;;13.90;47.94
36260;BME280;22296;50.824;5.644;2022-12-18T14:43:19;101299.63;;;13.99;47.78
36260;BME280;22296;50.824;5.644;2022-12-18T14:45:46;101300.75;;;13.98;47.68
36260;BME280;22296;50.824;5.644;2022-12-18T14:48:15;101303.97;;;14.05;47.72
36260;BME280;22296;50.824;5.644;2022-12-18T14:53:39;101304.78;;;14.05;47.63
36260;BME280;22296;50.824;5.644;2022-12-18T14:56:26;101298.09;;;14.06;47.73
36260;BME280;22296;50.824;5.644;2022-12-18T14:58:55;101298.56;;;14.13;47.57
36260;BME280;22296;50.824;5.644;2022-12-18T15:01:24;101310.75;;;14.12;47.62
36260;BME280;22296;50.824;5.644;2022-12-18T15:03:52;101309.13;;;14.11;47.58
36260;BME280;22296;50.824;5.644;2022-12-18T15:06:24;101316.53;;;14.16;47.55
36260;BME280;22296;50.824;5.644;2022-12-18T15:08:52;101316.31;;;14.12;47.66